createdAt,value
2023-03-15T00:00:33.403Z,99.99
2023-03-15T00:01:33.394Z,99.99
2023-03-15T00:02:33.434Z,99.99
2023-03-15T00:03:33.486Z,99.99
2023-03-15T00:04:33.374Z,99.99
2023-03-15T00:05:33.357Z,99.99
2023-03-15T00:06:33.328Z,99.99
2023-03-15T00:07:33.310Z,99.99
2023-03-15T00:08:33.331Z,99.99
2023-03-15T00:09:33.306Z,99.99
2023-03-15T00:10:33.279Z,99.99
2023-03-15T00:11:33.263Z,99.99
2023-03-15T00:12:33.255Z,99.99
2023-03-15T00:13:33.239Z,99.99
2023-03-15T00:14:33.239Z,99.99
2023-03-15T00:15:33.263Z,99.99
2023-03-15T00:16:33.197Z,99.99
2023-03-15T00:17:33.183Z,99.99
2023-03-15T00:18:33.178Z,99.99
2023-03-15T00:19:33.185Z,99.99
2023-03-15T00:20:33.146Z,99.99
2023-03-15T00:21:33.250Z,99.99
2023-03-15T00:22:33.128Z,99.99
2023-03-15T00:23:33.111Z,99.99
2023-03-15T00:24:33.108Z,99.99
2023-03-15T00:25:33.084Z,99.99
2023-03-15T00:26:33.068Z,99.99
2023-03-15T00:27:33.057Z,99.99
2023-03-15T00:28:33.045Z,99.99
2023-03-15T00:29:33.090Z,99.99
2023-03-15T00:30:33.026Z,99.99
2023-03-15T00:31:33.029Z,99.99
2023-03-15T00:32:33.049Z,99.99
2023-03-15T00:33:32.987Z,99.99
2023-03-15T00:34:32.984Z,99.99
2023-03-15T00:35:32.982Z,99.99
2023-03-15T00:36:32.954Z,99.99
2023-03-15T00:37:32.950Z,99.99
2023-03-15T00:38:32.925Z,99.99
2023-03-15T00:39:32.925Z,99.99
2023-03-15T00:40:32.897Z,99.99
2023-03-15T00:41:32.880Z,99.99
2023-03-15T00:42:32.866Z,99.99
2023-03-15T00:43:32.861Z,99.99
2023-03-15T00:44:32.859Z,99.99
2023-03-15T00:45:32.840Z,99.99
2023-03-15T00:46:32.867Z,99.99
2023-03-15T00:47:32.803Z,99.99
2023-03-15T00:48:32.808Z,99.99
2023-03-15T00:49:32.832Z,99.99
2023-03-15T00:50:32.766Z,99.99
2023-03-15T00:51:32.760Z,99.99
2023-03-15T00:52:32.740Z,99.99
2023-03-15T00:53:32.744Z,99.99
2023-03-15T00:54:32.717Z,99.99
2023-03-15T00:55:32.723Z,99.99
2023-03-15T00:56:32.696Z,99.99
2023-03-15T00:57:32.683Z,99.99
2023-03-15T00:58:32.668Z,99.99
2023-03-15T00:59:32.655Z,99.99
2023-03-15T01:00:32.662Z,99.99
2023-03-15T01:01:32.651Z,99.99
2023-03-15T01:02:32.671Z,99.99
2023-03-15T01:03:34.397Z,99.99
2023-03-15T01:04:32.586Z,99.99
2023-03-15T01:05:32.615Z,99.99
2023-03-15T01:06:32.563Z,99.99
2023-03-15T01:07:32.552Z,99.99
2023-03-15T01:08:32.538Z,99.99
2023-03-15T01:09:32.557Z,99.99
2023-03-15T01:10:32.535Z,99.99
2023-03-15T01:11:32.504Z,99.99
2023-03-15T01:12:32.485Z,99.99
2023-03-15T01:13:32.474Z,99.99
2023-03-15T01:14:32.464Z,99.99
2023-03-15T01:15:32.464Z,99.99
2023-03-15T01:16:34.066Z,99.99
2023-03-15T01:17:32.426Z,99.99
2023-03-15T01:18:32.408Z,99.99
2023-03-15T01:19:32.399Z,99.99
2023-03-15T01:20:32.427Z,99.99
2023-03-15T01:21:32.385Z,99.99
2023-03-15T01:22:32.379Z,99.99
2023-03-15T01:23:32.350Z,99.99
2023-03-15T01:24:32.339Z,99.99
2023-03-15T01:25:32.367Z,99.99
2023-03-15T01:26:32.311Z,99.99
2023-03-15T01:27:32.309Z,99.99
2023-03-15T01:28:32.284Z,99.99
2023-03-15T01:29:32.271Z,99.99
2023-03-15T01:30:32.274Z,99.99
2023-03-15T01:31:32.338Z,99.99
2023-03-15T01:32:32.268Z,99.99
2023-03-15T01:33:32.227Z,99.99
2023-03-15T01:34:32.207Z,99.99
2023-03-15T01:35:32.310Z,99.99
2023-03-15T01:36:32.184Z,99.99
2023-03-15T01:37:32.176Z,99.99
2023-03-15T01:38:32.174Z,99.99
2023-03-15T01:39:32.143Z,99.99
2023-03-15T01:40:32.170Z,99.99
2023-03-15T01:41:32.159Z,99.99
2023-03-15T01:42:32.109Z,99.99
2023-03-15T01:43:32.106Z,99.99
2023-03-15T01:44:32.079Z,99.99
2023-03-15T01:45:32.082Z,99.99
2023-03-15T01:46:32.103Z,99.99
2023-03-15T01:47:32.045Z,99.99
2023-03-15T01:48:32.027Z,99.99
2023-03-15T01:49:32.019Z,99.99
2023-03-15T01:50:32.040Z,99.99
2023-03-15T01:51:32.003Z,99.99
2023-03-15T01:52:31.988Z,99.99
2023-03-15T01:53:31.968Z,99.99
2023-03-15T01:54:31.949Z,99.99
2023-03-15T01:55:31.940Z,99.99
2023-03-15T01:56:31.950Z,99.99
2023-03-15T01:57:31.937Z,99.99
2023-03-15T01:58:31.918Z,99.99
2023-03-15T01:59:31.889Z,99.99
2023-03-15T02:00:31.998Z,99.99
2023-03-15T02:01:31.882Z,99.99
2023-03-15T02:02:31.899Z,99.99
2023-03-15T02:03:31.843Z,99.99
2023-03-15T02:04:31.827Z,99.99
2023-03-15T02:05:31.816Z,99.99
2023-03-15T02:06:31.812Z,99.99
2023-03-15T02:07:31.786Z,99.99
2023-03-15T02:08:31.773Z,99.99
2023-03-15T02:09:31.764Z,99.99
2023-03-15T02:10:31.754Z,99.99
2023-03-15T02:11:31.764Z,99.99
2023-03-15T02:12:31.726Z,99.99
2023-03-15T02:13:31.734Z,99.99
2023-03-15T02:14:31.705Z,99.99
2023-03-15T02:15:31.686Z,99.99
2023-03-15T02:16:31.748Z,99.99
2023-03-15T02:17:31.666Z,99.99
2023-03-15T02:18:31.644Z,99.99
2023-03-15T02:19:31.633Z,99.99
2023-03-15T02:20:31.622Z,99.99
2023-03-15T02:21:31.624Z,99.99
2023-03-15T02:22:31.601Z,99.99
2023-03-15T02:23:31.586Z,99.99
2023-03-15T02:24:31.572Z,99.99
2023-03-15T02:25:31.556Z,99.99
2023-03-15T02:26:31.563Z,99.99
2023-03-15T02:27:31.572Z,99.99
2023-03-15T02:28:31.518Z,99.99
2023-03-15T02:29:31.532Z,99.99
2023-03-15T02:30:31.496Z,99.99
2023-03-15T02:31:31.560Z,99.99
2023-03-15T02:32:31.498Z,99.99
2023-03-15T02:33:31.462Z,99.99
2023-03-15T02:34:31.461Z,99.99
2023-03-15T02:35:31.445Z,99.99
2023-03-15T02:36:31.439Z,99.99
2023-03-15T02:37:31.407Z,99.99
2023-03-15T02:38:31.389Z,99.99
2023-03-15T02:39:31.381Z,99.99
2023-03-15T02:40:31.372Z,99.99
2023-03-15T02:41:31.365Z,99.99
2023-03-15T02:42:31.344Z,99.99
2023-03-15T02:43:31.331Z,99.99
2023-03-15T02:44:31.337Z,99.99
2023-03-15T02:45:31.317Z,99.99
2023-03-15T02:46:31.312Z,99.99
2023-03-15T02:47:31.281Z,99.99
2023-03-15T02:48:31.266Z,99.99
2023-03-15T02:49:31.253Z,99.99
2023-03-15T02:50:31.253Z,99.99
2023-03-15T02:51:31.248Z,99.99
2023-03-15T02:52:31.224Z,99.99
2023-03-15T02:53:31.203Z,99.99
2023-03-15T02:54:31.188Z,99.99
2023-03-15T02:55:31.175Z,99.99
2023-03-15T02:56:31.191Z,99.99
2023-03-15T02:57:31.166Z,99.99
2023-03-15T02:58:31.142Z,99.99
2023-03-15T02:59:31.126Z,99.99
2023-03-15T03:00:31.121Z,99.99
2023-03-15T03:01:31.306Z,99.99
2023-03-15T03:02:31.112Z,99.99
2023-03-15T03:03:31.074Z,99.99
2023-03-15T03:04:31.071Z,99.99
2023-03-15T03:05:31.053Z,99.99
2023-03-15T03:06:31.057Z,99.99
2023-03-15T03:07:31.042Z,99.99
2023-03-15T03:08:31.019Z,99.99
2023-03-15T03:09:31.007Z,99.99
2023-03-15T03:10:30.982Z,99.99
2023-03-15T03:11:30.978Z,99.99
2023-03-15T03:12:30.979Z,99.99
2023-03-15T03:13:30.944Z,99.99
2023-03-15T03:14:30.936Z,99.99
2023-03-15T03:15:30.924Z,99.99
2023-03-15T03:16:30.980Z,99.99
2023-03-15T03:17:30.931Z,99.99
2023-03-15T03:18:30.887Z,99.99
2023-03-15T03:19:30.881Z,99.99
2023-03-15T03:20:30.857Z,99.99
2023-03-15T03:21:30.840Z,99.99
2023-03-15T03:22:30.860Z,99.99
2023-03-15T03:23:30.818Z,99.99
2023-03-15T03:24:30.802Z,99.99
2023-03-15T03:25:30.788Z,99.99
2023-03-15T03:26:30.774Z,99.99
2023-03-15T03:27:30.774Z,99.99
2023-03-15T03:28:30.755Z,99.99
2023-03-15T03:29:30.735Z,99.99
2023-03-15T03:30:30.748Z,99.99
2023-03-15T03:31:30.710Z,99.99
2023-03-15T03:32:30.779Z,99.99
2023-03-15T03:33:30.709Z,99.99
2023-03-15T03:34:30.677Z,99.99
2023-03-15T03:35:30.667Z,99.99
2023-03-15T03:36:30.648Z,99.99
2023-03-15T03:37:30.650Z,99.99
2023-03-15T03:38:30.617Z,99.99
2023-03-15T03:39:30.605Z,99.99
2023-03-15T03:40:30.594Z,99.99
2023-03-15T03:41:30.580Z,99.99
2023-03-15T03:42:30.594Z,99.99
2023-03-15T03:43:30.554Z,99.99
2023-03-15T03:44:30.543Z,99.99
2023-03-15T03:45:30.528Z,99.99
2023-03-15T03:46:30.596Z,99.99
2023-03-15T03:47:30.540Z,99.99
2023-03-15T03:48:30.492Z,99.99
2023-03-15T03:49:30.500Z,99.99
2023-03-15T03:50:30.467Z,99.99
2023-03-15T03:51:30.455Z,99.99
2023-03-15T03:52:30.463Z,99.99
2023-03-15T03:53:30.427Z,99.99
2023-03-15T03:54:30.413Z,99.99
2023-03-15T03:55:30.403Z,99.99
2023-03-15T03:56:30.395Z,99.99
2023-03-15T03:57:30.413Z,99.99
2023-03-15T03:58:30.372Z,99.99
2023-03-15T03:59:30.352Z,99.99
2023-03-15T04:00:30.336Z,99.99
2023-03-15T04:01:30.327Z,99.99
2023-03-15T04:02:30.403Z,99.99
2023-03-15T04:03:30.325Z,99.99
2023-03-15T04:04:30.420Z,99.99
2023-03-15T04:05:30.292Z,99.99
2023-03-15T04:06:30.268Z,99.99
2023-03-15T04:07:30.309Z,99.99
2023-03-15T04:08:30.255Z,99.99
2023-03-15T04:09:30.223Z,99.99
2023-03-15T04:10:30.210Z,99.99
2023-03-15T04:11:30.212Z,99.99
2023-03-15T04:12:30.209Z,99.99
2023-03-15T04:13:30.189Z,99.99
2023-03-15T04:14:30.165Z,99.99
2023-03-15T04:15:30.147Z,99.99
2023-03-15T04:16:30.253Z,99.99
2023-03-15T04:17:30.125Z,99.99
2023-03-15T04:18:30.126Z,99.99
2023-03-15T04:19:30.095Z,99.99
2023-03-15T04:20:30.094Z,99.99
2023-03-15T04:21:30.198Z,99.99
2023-03-15T04:22:30.062Z,99.99
2023-03-15T04:23:30.067Z,99.99
2023-03-15T04:24:30.041Z,99.99
2023-03-15T04:25:30.041Z,99.99
2023-03-15T04:26:30.030Z,99.99
2023-03-15T04:27:30.002Z,99.99
2023-03-15T04:28:30.006Z,99.99
2023-03-15T04:29:29.975Z,99.99
2023-03-15T04:30:29.972Z,99.99
2023-03-15T04:31:30.014Z,99.99
2023-03-15T04:32:30.000Z,99.99
2023-03-15T04:33:29.946Z,99.99
2023-03-15T04:34:29.923Z,99.99
2023-03-15T04:35:29.900Z,99.99
2023-03-15T04:36:29.894Z,99.99
2023-03-15T04:37:29.896Z,99.99
2023-03-15T04:38:29.889Z,99.99
2023-03-15T04:39:29.862Z,99.99
2023-03-15T04:40:29.840Z,99.99
2023-03-15T04:41:29.826Z,99.99
2023-03-15T04:42:29.822Z,99.99
2023-03-15T04:43:29.819Z,99.99
2023-03-15T04:44:29.789Z,99.99
2023-03-15T04:45:29.785Z,99.99
2023-03-15T04:46:29.795Z,99.99
2023-03-15T04:47:29.749Z,99.99
2023-03-15T04:48:29.779Z,99.99
2023-03-15T04:49:29.724Z,99.99
2023-03-15T04:50:29.721Z,99.99
2023-03-15T04:51:29.702Z,99.99
2023-03-15T04:52:29.695Z,99.99
2023-03-15T04:53:29.712Z,99.99
2023-03-15T04:54:29.666Z,99.99
2023-03-15T04:55:29.647Z,99.99
2023-03-15T04:56:29.640Z,99.99
2023-03-15T04:57:29.626Z,99.99
2023-03-15T04:58:29.630Z,99.99
2023-03-15T04:59:29.596Z,99.99
2023-03-15T05:00:29.616Z,99.99
2023-03-15T05:01:29.569Z,99.99
2023-03-15T05:02:29.562Z,99.99
2023-03-15T05:03:29.573Z,99.99
2023-03-15T05:04:29.536Z,99.99
2023-03-15T05:05:29.516Z,99.99
2023-03-15T05:06:29.504Z,99.99
2023-03-15T05:07:29.489Z,99.99
2023-03-15T05:08:29.496Z,99.99
2023-03-15T05:09:29.483Z,99.99
2023-03-15T05:10:29.458Z,99.99
2023-03-15T05:11:29.444Z,99.99
2023-03-15T05:12:29.441Z,99.99
2023-03-15T05:13:29.414Z,99.99
2023-03-15T05:14:29.421Z,99.99
2023-03-15T05:15:29.416Z,99.99
2023-03-15T05:16:29.420Z,99.99
2023-03-15T05:17:29.367Z,99.99
2023-03-15T05:18:29.354Z,99.99
2023-03-15T05:19:29.362Z,99.99
2023-03-15T05:20:29.325Z,99.99
2023-03-15T05:21:29.310Z,99.99
2023-03-15T05:22:29.313Z,99.99
2023-03-15T05:23:29.291Z,99.99
2023-03-15T05:24:29.287Z,99.99
2023-03-15T05:25:29.282Z,99.99
2023-03-15T05:26:29.258Z,99.99
2023-03-15T05:27:29.237Z,99.99
2023-03-15T05:28:29.228Z,99.99
2023-03-15T05:29:29.230Z,99.99
2023-03-15T05:30:29.208Z,99.99
2023-03-15T05:31:29.219Z,99.99
2023-03-15T05:32:29.200Z,99.99
2023-03-15T05:33:29.163Z,99.99
2023-03-15T05:34:29.165Z,99.99
2023-03-15T05:35:29.149Z,99.99
2023-03-15T05:36:29.126Z,99.99
2023-03-15T05:37:29.125Z,99.99
2023-03-15T05:38:29.095Z,99.99
2023-03-15T05:39:29.098Z,99.99
2023-03-15T05:40:29.070Z,99.99
2023-03-15T05:41:29.076Z,99.99
2023-03-15T05:42:29.046Z,99.99
2023-03-15T05:43:29.040Z,99.99
2023-03-15T05:44:29.042Z,99.99
2023-03-15T05:45:29.008Z,99.99
2023-03-15T05:46:29.018Z,99.99
2023-03-15T05:47:28.990Z,99.85
2023-03-15T05:48:28.967Z,99.85
2023-03-15T05:49:28.973Z,99.85
2023-03-15T05:50:28.949Z,99.96
2023-03-15T05:51:28.949Z,99.85
2023-03-15T05:52:28.919Z,99.99
2023-03-15T05:53:28.904Z,99.99
2023-03-15T05:54:28.913Z,99.99
2023-03-15T05:55:28.883Z,99.99
2023-03-15T05:56:28.871Z,99.99
2023-03-15T05:57:28.871Z,99.99
2023-03-15T05:58:28.846Z,99.99
2023-03-15T05:59:28.847Z,99.99
2023-03-15T06:00:28.814Z,99.96
2023-03-15T06:01:28.802Z,99.99
2023-03-15T06:02:28.800Z,99.99
2023-03-15T06:03:28.849Z,99.99
2023-03-15T06:04:28.860Z,99.75
2023-03-15T06:05:28.748Z,99.75
2023-03-15T06:06:28.739Z,99.96
2023-03-15T06:07:28.729Z,99.96
2023-03-15T06:08:28.714Z,99.99
2023-03-15T06:09:28.716Z,99.99
2023-03-15T06:10:28.692Z,99.99
2023-03-15T06:11:28.676Z,99.99
2023-03-15T06:12:28.660Z,99.99
2023-03-15T06:13:28.672Z,99.99
2023-03-15T06:14:28.660Z,99.99
2023-03-15T06:15:28.627Z,99.99
2023-03-15T06:16:28.638Z,99.99
2023-03-15T06:17:28.601Z,99.99
2023-03-15T06:18:28.601Z,99.99
2023-03-15T06:19:28.586Z,99.99
2023-03-15T06:20:28.563Z,99.99
2023-03-15T06:21:28.551Z,99.99
2023-03-15T06:22:28.542Z,99.99
2023-03-15T06:23:28.524Z,99.99
2023-03-15T06:24:28.530Z,99.99
2023-03-15T06:25:28.520Z,99.99
2023-03-15T06:26:28.484Z,99.99
2023-03-15T06:27:28.474Z,99.99
2023-03-15T06:28:28.464Z,99.99
2023-03-15T06:29:28.489Z,99.99
2023-03-15T06:30:28.553Z,99.99
2023-03-15T06:31:28.426Z,99.99
2023-03-15T06:32:28.445Z,99.99
2023-03-15T06:33:28.393Z,99.99
2023-03-15T06:34:28.402Z,99.99
2023-03-15T06:35:28.366Z,99.99
2023-03-15T06:36:28.366Z,99.99
2023-03-15T06:37:34.959Z,99.99
2023-03-15T06:38:28.366Z,99.99
2023-03-15T06:39:28.335Z,99.99
2023-03-15T06:40:28.312Z,99.99
2023-03-15T06:41:28.296Z,99.99
2023-03-15T06:42:28.284Z,99.99
2023-03-15T06:43:28.269Z,99.99
2023-03-15T06:44:28.258Z,99.99
2023-03-15T06:45:28.280Z,99.99
2023-03-15T06:46:28.285Z,99.99
2023-03-15T06:47:28.227Z,99.99
2023-03-15T06:48:28.207Z,99.99
2023-03-15T06:49:28.194Z,99.99
2023-03-15T06:50:34.394Z,99.99
2023-03-15T06:51:28.169Z,99.99
2023-03-15T06:52:28.159Z,99.99
2023-03-15T06:53:28.143Z,99.99
2023-03-15T06:54:28.138Z,99.99
2023-03-15T06:55:28.157Z,99.99
2023-03-15T06:56:28.103Z,99.99
2023-03-15T06:57:28.100Z,99.99
2023-03-15T06:58:28.085Z,99.99
2023-03-15T06:59:28.077Z,99.99
2023-03-15T07:00:28.076Z,99.99
2023-03-15T07:01:28.099Z,99.99
2023-03-15T07:02:28.122Z,99.99
2023-03-15T07:03:28.018Z,99.99
2023-03-15T07:04:28.009Z,99.99
2023-03-15T07:05:28.014Z,99.99
2023-03-15T07:06:28.004Z,99.99
2023-03-15T07:07:27.966Z,99.99
2023-03-15T07:08:27.958Z,99.99
2023-03-15T07:09:27.947Z,99.99
2023-03-15T07:10:27.951Z,99.99
2023-03-15T07:11:27.931Z,99.99
2023-03-15T07:12:27.907Z,99.99
2023-03-15T07:13:27.900Z,99.99
2023-03-15T07:14:27.886Z,99.99
2023-03-15T07:15:27.885Z,99.99
2023-03-15T07:16:27.873Z,99.99
2023-03-15T07:17:27.873Z,99.99
2023-03-15T07:18:27.839Z,99.99
2023-03-15T07:19:27.826Z,99.99
2023-03-15T07:20:27.821Z,99.99
2023-03-15T07:21:27.803Z,99.99
2023-03-15T07:22:27.784Z,99.99
2023-03-15T07:23:27.791Z,99.99
2023-03-15T07:24:27.758Z,99.99
2023-03-15T07:25:27.760Z,99.99
2023-03-15T07:26:27.746Z,99.99
2023-03-15T07:27:27.725Z,99.99
2023-03-15T07:28:27.727Z,99.99
2023-03-15T07:29:27.702Z,99.99
2023-03-15T07:30:27.699Z,99.99
2023-03-15T07:31:27.672Z,99.99
2023-03-15T07:32:27.845Z,99.99
2023-03-15T07:33:27.789Z,99.99
2023-03-15T07:34:27.635Z,99.99
2023-03-15T07:35:27.684Z,99.99
2023-03-15T07:36:27.613Z,99.99
2023-03-15T07:37:27.597Z,99.99
2023-03-15T07:38:27.579Z,99.99
2023-03-15T07:39:27.573Z,99.99
2023-03-15T07:40:27.556Z,99.99
2023-03-15T07:41:27.558Z,99.99
2023-03-15T07:42:27.530Z,99.99
2023-03-15T07:43:27.535Z,99.99
2023-03-15T07:44:27.510Z,99.99
2023-03-15T07:45:27.495Z,99.99
2023-03-15T07:46:27.547Z,99.99
2023-03-15T07:47:27.464Z,99.99
2023-03-15T07:48:27.452Z,99.99
2023-03-15T07:49:27.468Z,99.99
2023-03-15T07:50:27.427Z,99.99
2023-03-15T07:51:27.432Z,99.99
2023-03-15T07:52:27.403Z,99.99
2023-03-15T07:53:27.404Z,99.99
2023-03-15T07:54:28.826Z,99.99
2023-03-15T07:55:27.370Z,99.99
2023-03-15T07:56:27.362Z,99.99
2023-03-15T07:57:28.954Z,99.99
2023-03-15T07:58:27.333Z,99.99
2023-03-15T07:59:27.313Z,99.99
2023-03-15T08:00:27.303Z,99.99
2023-03-15T08:01:27.305Z,99.99
2023-03-15T08:02:29.573Z,99.99
2023-03-15T08:03:27.379Z,99.99
2023-03-15T08:04:27.263Z,99.99
2023-03-15T08:05:29.109Z,99.99
2023-03-15T08:06:27.247Z,99.99
2023-03-15T08:07:27.217Z,99.99
2023-03-15T08:08:27.197Z,99.99
2023-03-15T08:09:27.192Z,99.99
2023-03-15T08:10:27.176Z,99.99
2023-03-15T08:11:27.224Z,99.99
2023-03-15T08:12:27.150Z,99.99
2023-03-15T08:13:27.155Z,99.99
2023-03-15T08:14:27.123Z,99.99
2023-03-15T08:15:27.112Z,99.99
2023-03-15T08:16:27.209Z,99.99
2023-03-15T08:17:27.096Z,99.99
2023-03-15T08:18:27.073Z,99.99
2023-03-15T08:19:27.068Z,99.99
2023-03-15T08:20:29.628Z,99.99
2023-03-15T08:21:27.070Z,99.99
2023-03-15T08:22:27.023Z,99.99
2023-03-15T08:23:27.012Z,99.99
2023-03-15T08:24:27.029Z,99.99
2023-03-15T08:25:26.986Z,99.99
2023-03-15T08:26:26.985Z,99.99
2023-03-15T08:27:26.957Z,99.99
2023-03-15T08:28:26.947Z,99.99
2023-03-15T08:29:26.959Z,99.99
2023-03-15T08:30:26.926Z,99.99
2023-03-15T08:31:26.980Z,99.99
2023-03-15T08:32:26.975Z,99.99
2023-03-15T08:33:26.881Z,99.99
2023-03-15T08:34:26.871Z,99.99
2023-03-15T08:35:26.932Z,99.99
2023-03-15T08:36:26.988Z,99.99
2023-03-15T08:37:26.855Z,99.99
2023-03-15T08:38:26.847Z,99.99
2023-03-15T08:39:26.816Z,99.99
2023-03-15T08:40:26.919Z,99.99
2023-03-15T08:41:26.797Z,99.99
2023-03-15T08:42:26.776Z,99.99
2023-03-15T08:43:26.773Z,99.99
2023-03-15T08:44:26.764Z,99.99
2023-03-15T08:45:26.738Z,99.99
2023-03-15T08:46:26.819Z,99.99
2023-03-15T08:47:26.752Z,99.99
2023-03-15T08:48:26.701Z,99.99
2023-03-15T08:49:26.681Z,99.99
2023-03-15T08:50:26.790Z,99.99
2023-03-15T08:51:26.686Z,99.99
2023-03-15T08:52:26.640Z,99.99
2023-03-15T08:53:26.644Z,99.99
2023-03-15T08:54:26.614Z,99.99
2023-03-15T08:55:26.596Z,99.99
2023-03-15T08:56:26.589Z,99.99
2023-03-15T08:57:26.595Z,99.99
2023-03-15T08:58:26.560Z,99.99
2023-03-15T08:59:31.666Z,99.99
2023-03-15T09:00:26.648Z,99.99
2023-03-15T09:01:26.532Z,99.99
2023-03-15T09:02:26.571Z,99.99
2023-03-15T09:03:26.496Z,99.99
2023-03-15T09:04:26.564Z,99.99
2023-03-15T09:05:26.470Z,99.99
2023-03-15T09:06:26.454Z,99.99
2023-03-15T09:07:26.467Z,99.99
2023-03-15T09:08:26.429Z,99.99
2023-03-15T09:09:26.435Z,99.99
2023-03-15T09:10:26.406Z,99.99
2023-03-15T09:11:26.393Z,99.99
2023-03-15T09:12:26.399Z,99.99
2023-03-15T09:13:26.367Z,99.99
2023-03-15T09:14:26.351Z,99.99
2023-03-15T09:15:26.337Z,99.99
2023-03-15T09:16:26.352Z,99.99
2023-03-15T09:17:26.331Z,99.99
2023-03-15T09:18:26.299Z,99.99
2023-03-15T09:19:26.290Z,99.99
2023-03-15T09:20:26.274Z,99.99
2023-03-15T09:21:26.263Z,99.99
2023-03-15T09:22:38.550Z,99.99
2023-03-15T09:23:26.244Z,99.99
2023-03-15T09:24:26.225Z,99.99
2023-03-15T09:25:26.243Z,99.99
2023-03-15T09:26:26.205Z,99.99
2023-03-15T09:27:26.216Z,99.99
2023-03-15T09:28:26.180Z,99.99
2023-03-15T09:29:26.171Z,99.99
2023-03-15T09:30:26.155Z,99.99
2023-03-15T09:31:26.194Z,99.85
2023-03-15T09:32:26.179Z,99.99
2023-03-15T09:33:26.129Z,99.38
2023-03-15T09:34:27.570Z,99.59
2023-03-15T09:35:26.127Z,99.28
2023-03-15T09:36:26.077Z,99.91
2023-03-15T09:37:26.080Z,99.91
2023-03-15T09:38:26.056Z,99.91
2023-03-15T09:39:26.048Z,99.80
2023-03-15T09:40:26.033Z,99.28
2023-03-15T09:41:26.035Z,99.18
2023-03-15T09:42:26.020Z,99.59
2023-03-15T09:43:25.988Z,99.28
2023-03-15T09:44:25.979Z,99.55
2023-03-15T09:45:25.968Z,99.24
2023-03-15T09:46:26.051Z,99.76
2023-03-15T09:47:25.961Z,99.76
2023-03-15T09:48:25.926Z,99.86
2023-03-15T09:49:25.946Z,99.92
2023-03-15T09:50:25.905Z,99.99
2023-03-15T09:51:25.886Z,99.99
2023-03-15T09:52:25.901Z,99.71
2023-03-15T09:53:25.870Z,99.13
2023-03-15T09:54:25.881Z,99.40
2023-03-15T09:55:25.842Z,99.09
2023-03-15T09:56:25.839Z,99.40
2023-03-15T09:57:25.843Z,99.71
2023-03-15T09:58:25.821Z,99.99
2023-03-15T09:59:25.789Z,99.56
2023-03-15T10:00:25.779Z,99.87
2023-03-15T10:01:25.810Z,99.56
2023-03-15T10:02:25.776Z,99.66
2023-03-15T10:03:25.868Z,99.15
2023-03-15T10:04:25.730Z,98.32
2023-03-15T10:05:25.710Z,98.00
2023-03-15T10:06:25.698Z,98.63
2023-03-15T10:07:25.686Z,99.41
2023-03-15T10:08:25.688Z,99.16
2023-03-15T10:09:25.661Z,98.22
2023-03-15T10:10:25.644Z,97.66
2023-03-15T10:11:25.637Z,97.97
2023-03-15T10:12:25.637Z,98.08
2023-03-15T10:13:25.650Z,98.18
2023-03-15T10:14:25.603Z,98.18
2023-03-15T10:15:25.587Z,98.49
2023-03-15T10:16:25.670Z,98.85
2023-03-15T10:17:25.558Z,98.60
2023-03-15T10:18:25.562Z,98.70
2023-03-15T10:19:25.543Z,97.91
2023-03-15T10:20:25.519Z,98.54
2023-03-15T10:21:25.509Z,98.95
2023-03-15T10:22:25.498Z,99.11
2023-03-15T10:23:25.510Z,99.01
2023-03-15T10:24:25.468Z,98.74
2023-03-15T10:25:25.469Z,98.95
2023-03-15T10:26:25.469Z,99.57
2023-03-15T10:27:25.440Z,99.05
2023-03-15T10:28:25.442Z,99.16
2023-03-15T10:29:25.434Z,99.99
2023-03-15T10:30:25.402Z,99.99
2023-03-15T10:31:32.968Z,99.99
2023-03-15T10:32:25.411Z,99.99
2023-03-15T10:33:25.376Z,99.99
2023-03-15T10:34:25.346Z,99.99
2023-03-15T10:35:25.333Z,99.52
2023-03-15T10:36:25.416Z,98.38
2023-03-15T10:37:25.346Z,97.55
2023-03-15T10:38:25.316Z,98.07
2023-03-15T10:39:25.288Z,98.27
2023-03-15T10:40:25.268Z,98.58
2023-03-15T10:41:29.044Z,99.00
2023-03-15T10:42:25.241Z,99.26
2023-03-15T10:43:25.249Z,98.95
2023-03-15T10:44:25.217Z,98.69
2023-03-15T10:45:25.266Z,98.95
2023-03-15T10:46:25.223Z,98.85
2023-03-15T10:47:25.221Z,98.69
2023-03-15T10:48:25.179Z,99.10
2023-03-15T10:49:25.149Z,98.79
2023-03-15T10:50:25.145Z,99.10
2023-03-15T10:51:25.132Z,99.05
2023-03-15T10:52:25.118Z,99.37
2023-03-15T10:53:25.122Z,99.31
2023-03-15T10:54:25.120Z,99.72
2023-03-15T10:55:25.087Z,99.93
2023-03-15T10:56:25.070Z,99.47
2023-03-15T10:57:25.051Z,99.05
2023-03-15T10:58:25.933Z,98.60
2023-03-15T10:59:25.029Z,96.83
2023-03-15T11:00:25.010Z,97.56
2023-03-15T11:01:25.057Z,97.83
2023-03-15T11:02:25.000Z,97.72
2023-03-15T11:03:24.998Z,97.67
2023-03-15T11:04:24.961Z,97.26
2023-03-15T11:05:24.949Z,95.03
2023-03-15T11:06:24.938Z,94.93
2023-03-15T11:07:24.930Z,94.62
2023-03-15T11:08:24.945Z,93.41
2023-03-15T11:09:24.899Z,94.04
2023-03-15T11:10:24.882Z,94.31
2023-03-15T11:11:24.885Z,94.51
2023-03-15T11:12:24.869Z,94.51
2023-03-15T11:13:24.877Z,94.20
2023-03-15T11:14:24.837Z,93.85
2023-03-15T11:15:24.823Z,94.16
2023-03-15T11:16:24.860Z,94.57
2023-03-15T11:17:24.821Z,95.04
2023-03-15T11:18:24.811Z,95.04
2023-03-15T11:19:24.768Z,94.32
2023-03-15T11:20:24.760Z,94.28
2023-03-15T11:21:24.746Z,93.66
2023-03-15T11:22:24.744Z,92.99
2023-03-15T11:23:24.721Z,92.27
2023-03-15T11:24:24.780Z,92.85
2023-03-15T11:25:25.165Z,91.50
2023-03-15T11:26:33.090Z,91.16
2023-03-15T11:27:25.672Z,89.44
2023-03-15T11:28:24.657Z,89.71
2023-03-15T11:29:24.654Z,90.02
2023-03-15T11:30:24.632Z,90.02
2023-03-15T11:31:24.644Z,90.74
2023-03-15T11:32:24.692Z,89.81
2023-03-15T11:33:24.610Z,89.95
2023-03-15T11:34:24.588Z,89.95
2023-03-15T11:35:24.674Z,90.02
2023-03-15T11:36:24.555Z,88.95
2023-03-15T11:37:24.532Z,87.66
2023-03-15T11:38:24.529Z,85.44
2023-03-15T11:39:24.530Z,82.32
2023-03-15T11:40:24.499Z,83.56
2023-03-15T11:41:24.485Z,86.18
2023-03-15T11:42:24.476Z,85.09
2023-03-15T11:43:24.469Z,84.78
2023-03-15T11:44:24.463Z,86.61
2023-03-15T11:45:24.484Z,89.03
2023-03-15T11:46:24.424Z,89.48
2023-03-15T11:47:24.406Z,91.28
2023-03-15T11:48:24.391Z,91.75
2023-03-15T11:49:24.433Z,91.75
2023-03-15T11:50:24.373Z,90.72
2023-03-15T11:51:24.358Z,90.58
2023-03-15T11:52:24.348Z,89.01
2023-03-15T11:53:24.331Z,87.48
2023-03-15T11:54:24.331Z,86.45
2023-03-15T11:55:24.302Z,85.34
2023-03-15T11:56:24.296Z,83.18
2023-03-15T11:57:24.278Z,84.21
2023-03-15T11:58:24.264Z,85.74
2023-03-15T11:59:24.270Z,79.80
2023-03-15T12:00:24.240Z,79.98
2023-03-15T12:01:24.224Z,79.74
2023-03-15T12:02:24.394Z,76.37
2023-03-15T12:03:24.231Z,73.33
2023-03-15T12:04:24.204Z,70.72
2023-03-15T12:05:24.192Z,69.63
2023-03-15T12:06:24.160Z,66.72
2023-03-15T12:07:24.147Z,63.42
2023-03-15T12:08:24.141Z,61.56
2023-03-15T12:09:25.163Z,60.59
2023-03-15T12:10:24.119Z,59.59
2023-03-15T12:11:24.119Z,58.90
2023-03-15T12:12:24.086Z,56.42
2023-03-15T12:13:24.095Z,60.22
2023-03-15T12:14:24.069Z,59.08
2023-03-15T12:15:24.069Z,59.63
2023-03-15T12:16:24.079Z,63.48
2023-03-15T12:17:24.031Z,68.81
2023-03-15T12:18:24.028Z,68.44
2023-03-15T12:19:24.009Z,70.10
2023-03-15T12:20:24.012Z,68.69
2023-03-15T12:21:23.981Z,73.30
2023-03-15T12:22:23.964Z,71.77
2023-03-15T12:23:23.968Z,71.45
2023-03-15T12:24:23.926Z,69.28
2023-03-15T12:25:23.921Z,69.82
2023-03-15T12:26:23.898Z,70.46
2023-03-15T12:27:23.886Z,73.78
2023-03-15T12:28:23.868Z,72.89
2023-03-15T12:29:23.850Z,70.91
2023-03-15T12:30:23.863Z,70.60
2023-03-15T12:31:23.852Z,69.96
2023-03-15T12:32:23.887Z,65.05
2023-03-15T12:33:23.801Z,62.04
2023-03-15T12:34:23.813Z,61.61
2023-03-15T12:35:23.789Z,62.23
2023-03-15T12:36:23.762Z,61.44
2023-03-15T12:37:23.764Z,60.34
2023-03-15T12:38:23.742Z,62.71
2023-03-15T12:39:23.721Z,60.58
2023-03-15T12:40:26.516Z,62.10
2023-03-15T12:41:23.694Z,62.62
2023-03-15T12:42:23.682Z,64.18
2023-03-15T12:43:23.664Z,65.57
2023-03-15T12:44:23.656Z,64.17
2023-03-15T12:45:23.653Z,66.78
2023-03-15T12:46:23.718Z,67.94
2023-03-15T12:47:23.611Z,68.66
2023-03-15T12:48:23.605Z,65.14
2023-03-15T12:49:23.586Z,63.66
2023-03-15T12:50:23.591Z,64.41
2023-03-15T12:51:23.569Z,65.57
2023-03-15T12:52:23.546Z,65.29